createdAt,value
2018-07-12T00:02:06.354Z,19.30
2018-07-12T00:04:33.960Z,19.30
2018-07-12T00:07:01.519Z,19.32
2018-07-12T00:09:28.963Z,19.28
2018-07-12T00:11:56.413Z,19.26
2018-07-12T00:14:23.873Z,19.24
2018-07-12T00:16:51.338Z,19.25
2018-07-12T00:19:18.911Z,19.21
2018-07-12T00:21:46.356Z,19.20
2018-07-12T00:24:13.892Z,19.14
2018-07-12T00:26:41.353Z,19.10
2018-07-12T00:29:08.806Z,19.08
2018-07-12T00:31:36.277Z,19.09
2018-07-12T00:34:03.746Z,19.08
2018-07-12T00:36:31.205Z,19.06
2018-07-12T00:38:58.658Z,19.00
2018-07-12T00:41:26.132Z,18.97
2018-07-12T00:43:53.622Z,18.96
2018-07-12T00:46:21.067Z,18.95
2018-07-12T00:48:48.530Z,18.93
2018-07-12T00:51:15.967Z,18.93
2018-07-12T00:53:43.429Z,18.94
2018-07-12T00:56:10.903Z,18.97
2018-07-12T00:58:38.346Z,18.99
2018-07-12T01:01:05.790Z,18.97
2018-07-12T01:03:33.247Z,18.96
2018-07-12T01:06:00.749Z,18.97
2018-07-12T01:08:28.271Z,18.98
2018-07-12T01:10:55.862Z,18.98
2018-07-12T01:13:23.367Z,18.97
2018-07-12T01:15:50.834Z,18.96
2018-07-12T01:18:18.298Z,18.92
2018-07-12T01:20:45.753Z,18.94
2018-07-12T01:23:13.202Z,18.93
2018-07-12T01:25:40.638Z,18.85
2018-07-12T01:28:08.081Z,18.83
2018-07-12T01:30:35.591Z,18.85
2018-07-12T01:33:03.061Z,18.82
2018-07-12T01:35:30.562Z,18.76
2018-07-12T01:37:58.013Z,18.75
2018-07-12T01:40:25.517Z,18.77
2018-07-12T01:42:52.993Z,18.76
2018-07-12T01:45:20.480Z,18.73
2018-07-12T01:47:47.959Z,18.72
2018-07-12T01:50:15.474Z,18.71
2018-07-12T01:52:42.947Z,18.68
2018-07-12T01:55:10.406Z,18.66
2018-07-12T01:57:37.853Z,18.59
2018-07-12T02:00:05.440Z,18.52
2018-07-12T02:02:32.911Z,18.48
2018-07-12T02:05:00.354Z,18.48
2018-07-12T02:07:27.926Z,18.44
2018-07-12T02:09:55.392Z,18.35
2018-07-12T02:12:22.926Z,18.33
2018-07-12T02:14:50.403Z,18.25
2018-07-12T02:17:17.905Z,18.22
2018-07-12T02:19:45.414Z,18.19
2018-07-12T02:22:12.889Z,18.13
2018-07-12T02:24:40.354Z,18.05
2018-07-12T02:27:07.860Z,18.03
2018-07-12T02:29:35.322Z,18.03
2018-07-12T02:32:02.790Z,17.99
2018-07-12T02:34:30.296Z,18.00
2018-07-12T02:36:57.758Z,18.01
2018-07-12T02:39:25.231Z,18.01
2018-07-12T02:41:52.761Z,18.01
2018-07-12T02:44:20.253Z,17.97
2018-07-12T02:46:47.698Z,17.98
2018-07-12T02:49:15.483Z,17.95
2018-07-12T02:51:42.954Z,17.96
2018-07-12T02:54:10.469Z,17.99
2018-07-12T02:56:38.018Z,18.00
2018-07-12T02:59:05.470Z,17.98
2018-07-12T03:01:32.947Z,17.97
2018-07-12T03:04:00.411Z,17.95
2018-07-12T03:06:27.863Z,17.92
2018-07-12T03:08:55.344Z,17.90
2018-07-12T03:11:22.824Z,17.90
2018-07-12T03:13:50.411Z,17.90
2018-07-12T03:16:17.887Z,17.92
2018-07-12T03:18:45.363Z,17.92
2018-07-12T03:21:12.826Z,17.94
2018-07-12T03:23:40.334Z,17.97
2018-07-12T03:26:07.806Z,17.94
2018-07-12T03:28:35.288Z,17.96
2018-07-12T03:31:02.752Z,17.98
2018-07-12T03:33:30.203Z,18.00
2018-07-12T03:35:57.672Z,18.02
2018-07-12T03:38:25.179Z,18.06
2018-07-12T03:40:52.657Z,18.07
2018-07-12T03:43:20.331Z,18.08
2018-07-12T03:45:47.789Z,18.22
2018-07-12T03:48:15.296Z,18.21
2018-07-12T03:50:42.758Z,18.31
2018-07-12T03:53:10.234Z,18.39
2018-07-12T03:55:37.728Z,18.44
2018-07-12T03:58:05.231Z,18.54
2018-07-12T04:00:32.903Z,18.58
2018-07-12T04:03:00.433Z,18.62
2018-07-12T04:05:27.952Z,18.60
2018-07-12T04:07:55.401Z,18.61
2018-07-12T04:10:22.882Z,18.59
2018-07-12T04:12:50.367Z,18.62
2018-07-12T04:15:17.846Z,18.61
2018-07-12T04:17:45.864Z,18.67
2018-07-12T04:20:13.347Z,18.65
2018-07-12T04:22:40.799Z,18.67
2018-07-12T04:25:08.269Z,18.71
2018-07-12T04:27:35.716Z,18.72
2018-07-12T04:30:04.216Z,18.72
2018-07-12T04:32:31.665Z,18.75
2018-07-12T04:34:59.160Z,18.82
2018-07-12T04:37:26.610Z,18.85
2018-07-12T04:39:54.090Z,18.86
2018-07-12T04:42:21.566Z,18.83
2018-07-12T04:44:49.022Z,18.90
2018-07-12T04:47:16.543Z,18.96
2018-07-12T04:49:43.990Z,19.13
2018-07-12T04:52:11.442Z,19.37
2018-07-12T04:54:38.917Z,19.80
2018-07-12T04:57:06.449Z,20.61
2018-07-12T04:59:33.897Z,21.93
2018-07-12T05:02:01.371Z,23.10
2018-07-12T05:04:28.928Z,24.03
2018-07-12T05:06:56.400Z,25.14
2018-07-12T05:09:23.870Z,25.89
2018-07-12T05:11:51.341Z,26.36
2018-07-12T05:14:18.938Z,26.77
2018-07-12T05:16:46.596Z,27.01
2018-07-12T05:19:14.062Z,27.40
2018-07-12T05:21:41.520Z,28.04
2018-07-12T05:24:09.010Z,28.39
2018-07-12T05:26:36.555Z,28.46
2018-07-12T05:29:04.013Z,28.62
2018-07-12T05:31:31.478Z,28.51
2018-07-12T05:33:58.983Z,28.16
2018-07-12T05:37:00.909Z,28.00
2018-07-12T05:39:29.708Z,27.96
2018-07-12T05:41:58.575Z,27.95
2018-07-12T05:44:27.370Z,28.05
2018-07-12T05:46:56.154Z,28.39
2018-07-12T05:49:25.024Z,28.56
2018-07-12T05:51:53.865Z,28.14
2018-07-12T05:54:22.688Z,28.03
2018-07-12T05:56:51.844Z,27.84
2018-07-12T05:59:20.887Z,27.38
2018-07-12T06:02:00.639Z,27.10
2018-07-12T06:04:29.454Z,26.81
2018-07-12T06:06:58.286Z,26.43
2018-07-12T06:09:27.051Z,26.00
2018-07-12T06:11:55.828Z,25.59
2018-07-12T06:14:25.030Z,25.30
2018-07-12T06:16:53.834Z,25.21
2018-07-12T06:19:22.607Z,24.93
2018-07-12T06:21:51.397Z,24.74
2018-07-12T06:24:20.177Z,24.38
2018-07-12T06:26:48.955Z,24.45
2018-07-12T06:29:17.762Z,24.49
2018-07-12T06:31:47.577Z,24.47
2018-07-12T06:34:16.461Z,24.42
2018-07-12T06:36:45.426Z,24.38
2018-07-12T06:39:14.210Z,24.32
2018-07-12T06:41:43.574Z,24.30
2018-07-12T06:44:12.407Z,24.24
2018-07-12T06:46:41.230Z,24.15
2018-07-12T06:49:10.005Z,24.09
2018-07-12T06:51:38.827Z,24.07
2018-07-12T06:54:08.017Z,23.88
2018-07-12T06:56:37.158Z,23.94
2018-07-12T06:59:06.553Z,23.97
2018-07-12T07:01:35.369Z,24.04
2018-07-12T07:04:04.386Z,24.09
2018-07-12T07:06:33.153Z,24.05
2018-07-12T07:09:01.982Z,24.03
2018-07-12T07:11:30.848Z,24.04
2018-07-12T07:13:59.716Z,24.08
2018-07-12T07:16:28.510Z,24.02
2018-07-12T07:18:57.286Z,24.09
2018-07-12T07:21:26.070Z,24.08
2018-07-12T07:23:54.995Z,24.04
2018-07-12T07:26:23.957Z,24.10
2018-07-12T07:28:53.208Z,24.06
2018-07-12T07:31:22.068Z,24.01
2018-07-12T07:33:51.087Z,24.04
2018-07-12T07:36:20.174Z,24.02
2018-07-12T07:38:48.968Z,23.98
2018-07-12T07:41:18.555Z,24.00
2018-07-12T07:43:47.320Z,23.99
2018-07-12T07:46:16.117Z,24.13
2018-07-12T07:48:45.447Z,24.16
2018-07-12T07:51:14.203Z,24.24
2018-07-12T07:53:43.023Z,24.32
2018-07-12T07:56:11.798Z,24.49
2018-07-12T07:58:40.783Z,24.50
2018-07-12T08:01:09.547Z,24.63
2018-07-12T08:03:38.358Z,24.63
2018-07-12T08:06:07.227Z,24.63
2018-07-12T08:08:36.027Z,24.65
2018-07-12T08:11:04.846Z,24.71
2018-07-12T08:13:33.637Z,24.81
2018-07-12T08:16:02.436Z,24.84
2018-07-12T08:18:31.200Z,24.86
2018-07-12T08:21:00.004Z,24.84
2018-07-12T08:23:28.846Z,24.93
2018-07-12T08:25:57.809Z,25.03
2018-07-12T08:28:28.646Z,25.04
2018-07-12T08:30:57.447Z,25.12
2018-07-12T08:33:26.529Z,25.15
2018-07-12T08:35:55.482Z,25.23
2018-07-12T08:38:24.258Z,25.29
2018-07-12T08:40:53.010Z,25.34
2018-07-12T08:43:21.880Z,25.32
2018-07-12T08:45:50.668Z,25.35
2018-07-12T08:48:19.470Z,25.41
2018-07-12T08:50:48.276Z,25.46
2018-07-12T08:53:17.109Z,25.54
2018-07-12T08:55:45.854Z,25.57
2018-07-12T08:58:14.613Z,25.68
2018-07-12T09:00:43.428Z,25.64
2018-07-12T09:03:12.198Z,25.68
2018-07-12T09:05:41.083Z,25.74
2018-07-12T09:08:09.857Z,25.90
2018-07-12T09:10:38.645Z,25.89
2018-07-12T09:13:07.433Z,25.92
2018-07-12T09:15:36.189Z,26.01
2018-07-12T09:18:05.034Z,26.13
2018-07-12T09:20:33.777Z,26.11
2018-07-12T09:23:02.636Z,26.19
2018-07-12T09:25:31.572Z,26.23
2018-07-12T09:28:00.511Z,26.30
2018-07-12T09:30:29.309Z,26.36
2018-07-12T09:32:58.117Z,26.28
2018-07-12T09:35:26.890Z,26.32
2018-07-12T09:37:55.641Z,26.41
2018-07-12T09:40:24.754Z,26.49
2018-07-12T09:42:54.064Z,26.49
2018-07-12T09:45:22.942Z,26.54
2018-07-12T09:47:51.714Z,26.60
2018-07-12T09:50:20.523Z,26.60
2018-07-12T09:52:49.327Z,26.63
2018-07-12T09:55:18.201Z,26.64
2018-07-12T09:57:57.992Z,26.69
2018-07-12T10:01:30.708Z,26.72
2018-07-12T10:03:59.462Z,26.71
2018-07-12T10:06:32.215Z,26.70
2018-07-12T10:10:04.013Z,26.76
2018-07-12T10:12:37.851Z,26.86
2018-07-12T10:15:09.631Z,26.99
2018-07-12T10:17:48.552Z,26.93
2018-07-12T10:20:17.713Z,26.80
2018-07-12T10:22:46.508Z,27.02
2018-07-12T10:25:15.269Z,27.24
2018-07-12T10:27:44.049Z,27.23
2018-07-12T10:30:12.827Z,27.37
2018-07-12T10:32:42.282Z,27.50
2018-07-12T10:35:11.141Z,27.56
2018-07-12T10:37:39.899Z,27.59
2018-07-12T10:40:08.651Z,27.53
2018-07-12T10:42:37.399Z,27.56
2018-07-12T10:45:06.238Z,27.55
2018-07-12T10:47:35.131Z,27.54
2018-07-12T10:50:04.004Z,27.52
2018-07-12T10:52:32.833Z,27.62
2018-07-12T10:55:01.782Z,27.71
2018-07-12T10:57:30.638Z,27.70
2018-07-12T10:59:59.435Z,27.66
2018-07-12T11:02:28.213Z,27.56
2018-07-12T11:04:57.005Z,27.67
2018-07-12T11:07:25.812Z,27.79
2018-07-12T11:09:54.586Z,27.78
2018-07-12T11:12:23.437Z,27.69
2018-07-12T11:14:52.194Z,27.74
2018-07-12T11:17:21.889Z,27.87
2018-07-12T11:19:50.638Z,28.01
2018-07-12T11:22:19.867Z,27.99
2018-07-12T11:24:48.654Z,27.95
2018-07-12T11:27:17.537Z,27.96
2018-07-12T11:29:53.973Z,27.95
2018-07-12T11:32:22.745Z,27.96
2018-07-12T11:34:52.062Z,28.03
2018-07-12T11:37:25.864Z,28.09
2018-07-12T11:39:54.602Z,28.08
2018-07-12T11:42:23.583Z,28.12
2018-07-12T11:44:52.370Z,28.18
2018-07-12T11:47:21.341Z,28.23
2018-07-12T11:49:50.142Z,28.28
2018-07-12T11:52:18.894Z,28.28
2018-07-12T11:54:47.767Z,28.35
2018-07-12T11:57:16.610Z,28.33
2018-07-12T11:59:45.345Z,28.25
2018-07-12T12:02:14.185Z,28.30
2018-07-12T12:04:42.950Z,28.43
2018-07-12T12:07:11.686Z,28.42
2018-07-12T12:09:40.413Z,28.34
2018-07-12T12:12:09.206Z,28.35
2018-07-12T12:14:38.157Z,28.34
2018-07-12T12:17:06.957Z,28.37
2018-07-12T12:19:36.750Z,28.45
2018-07-12T12:22:05.473Z,28.49
2018-07-12T12:24:34.310Z,28.55
2018-07-12T12:27:03.097Z,28.38
2018-07-12T12:29:31.862Z,28.36
2018-07-12T12:32:00.623Z,28.41
2018-07-12T12:34:29.431Z,28.43
2018-07-12T12:36:58.172Z,28.45
2018-07-12T12:39:26.932Z,28.43
2018-07-12T12:41:55.764Z,28.44
2018-07-12T12:44:24.679Z,28.51
2018-07-12T12:46:53.468Z,28.67
2018-07-12T12:49:22.242Z,28.66
2018-07-12T12:51:51.022Z,28.68
2018-07-12T12:54:19.758Z,28.67
2018-07-12T12:56:48.513Z,28.70
2018-07-12T12:59:17.266Z,28.73
2018-07-12T13:01:46.097Z,28.85
2018-07-12T13:04:14.854Z,28.91
2018-07-12T13:06:43.643Z,28.98
2018-07-12T13:09:12.565Z,29.03
2018-07-12T13:11:41.326Z,29.10
2018-07-12T13:14:10.168Z,29.24
2018-07-12T13:16:38.930Z,29.14
2018-07-12T13:19:07.678Z,29.10
2018-07-12T13:21:36.451Z,29.01
2018-07-12T13:24:05.662Z,29.01
2018-07-12T13:26:34.483Z,29.29
2018-07-12T13:29:03.282Z,29.51
2018-07-12T13:31:32.046Z,29.80
2018-07-12T13:34:00.910Z,29.98
2018-07-12T13:36:29.671Z,29.33
2018-07-12T13:38:58.491Z,28.50
2018-07-12T13:41:27.253Z,28.34
2018-07-12T13:44:07.428Z,27.90
2018-07-12T13:46:36.237Z,27.68
2018-07-12T13:49:05.193Z,27.55
2018-07-12T13:51:34.035Z,27.66
2018-07-12T13:54:02.818Z,27.60
2018-07-12T13:56:31.617Z,27.43
2018-07-12T13:59:00.491Z,27.25
2018-07-12T14:01:29.365Z,27.27
2018-07-12T14:03:58.107Z,27.05
2018-07-12T14:06:26.915Z,27.11
2018-07-12T14:08:55.727Z,27.07
2018-07-12T14:11:24.518Z,27.20
2018-07-12T14:13:53.515Z,27.09
2018-07-12T14:16:22.803Z,27.13
2018-07-12T14:18:51.712Z,27.10
2018-07-12T14:21:20.476Z,27.22
2018-07-12T14:23:49.278Z,27.10
2018-07-12T14:26:18.015Z,27.34
2018-07-12T14:28:46.783Z,27.58
2018-07-12T14:31:15.780Z,27.78
2018-07-12T14:33:44.560Z,27.82
2018-07-12T14:36:13.378Z,27.98
2018-07-12T14:38:42.122Z,28.05
2018-07-12T14:41:10.918Z,27.86
2018-07-12T14:43:39.745Z,27.82
2018-07-12T14:46:08.851Z,27.89
2018-07-12T14:48:37.671Z,27.99
2018-07-12T14:51:06.462Z,28.10
2018-07-12T14:53:35.251Z,28.13
2018-07-12T14:56:04.220Z,28.08
2018-07-12T14:58:32.959Z,28.09
2018-07-12T15:01:01.776Z,28.08
2018-07-12T15:03:30.624Z,28.18
2018-07-12T15:05:59.412Z,28.16
2018-07-12T15:08:28.200Z,28.00
2018-07-12T15:10:56.994Z,28.03
2018-07-12T15:13:26.055Z,28.07
2018-07-12T15:15:54.841Z,28.18
2018-07-12T15:18:23.616Z,28.26
2018-07-12T15:20:52.403Z,28.23
2018-07-12T15:23:21.227Z,28.28
2018-07-12T15:25:50.030Z,28.30
2018-07-12T15:28:19.003Z,28.21
2018-07-12T15:30:47.762Z,28.25
2018-07-12T15:33:16.557Z,28.26
2018-07-12T15:35:45.398Z,28.33
2018-07-12T15:38:14.302Z,28.39
2018-07-12T15:40:43.134Z,28.40
2018-07-12T15:43:13.050Z,28.41
2018-07-12T15:45:45.713Z,28.26
2018-07-12T15:48:16.004Z,28.22
2018-07-12T15:50:46.002Z,28.26
2018-07-12T15:53:16.720Z,28.27
2018-07-12T15:55:46.132Z,28.24
2018-07-12T15:58:14.959Z,28.24
2018-07-12T16:00:43.782Z,28.33
2018-07-12T16:03:12.579Z,28.29
2018-07-12T16:05:41.466Z,28.34
2018-07-12T16:08:10.266Z,28.40
2018-07-12T16:10:39.311Z,28.34
2018-07-12T16:13:08.440Z,28.36
2018-07-12T16:15:37.223Z,28.39
2018-07-12T16:18:06.035Z,28.23
2018-07-12T16:20:34.791Z,28.07
2018-07-12T16:23:04.478Z,28.04
2018-07-12T16:25:33.357Z,27.89
2018-07-12T16:28:02.140Z,27.84
2018-07-12T16:30:30.949Z,27.74
2018-07-12T16:32:59.739Z,27.74
2018-07-12T16:35:28.613Z,27.70
2018-07-12T16:37:57.491Z,27.77
2018-07-12T16:40:26.984Z,27.84
2018-07-12T16:42:55.768Z,27.90
2018-07-12T16:45:24.601Z,27.98
2018-07-12T16:47:53.408Z,27.98
2018-07-12T16:50:22.256Z,27.93
2018-07-12T16:52:51.016Z,27.77
2018-07-12T16:55:19.821Z,27.58
2018-07-12T16:57:48.634Z,27.22
2018-07-12T17:00:19.794Z,27.05
2018-07-12T17:02:49.458Z,26.99
2018-07-12T17:05:20.218Z,27.00
2018-07-12T17:07:49.228Z,26.99
2018-07-12T17:10:18.149Z,27.06
2018-07-12T17:12:47.031Z,27.07
2018-07-12T17:15:15.835Z,27.03
2018-07-12T19:19:10.954Z,23.39
2018-07-12T19:21:40.167Z,23.51
2018-07-12T19:24:08.948Z,23.63
2018-07-12T19:26:38.540Z,23.71
2018-07-12T19:29:07.627Z,23.82
2018-07-12T19:31:36.471Z,23.90
2018-07-12T19:34:05.274Z,24.00
2018-07-12T19:36:34.063Z,24.02
2018-07-12T19:39:03.001Z,24.03
2018-07-12T19:41:32.156Z,24.03
2018-07-12T19:44:01.158Z,24.02
2018-07-12T19:46:30.085Z,24.00
2018-07-12T19:48:59.175Z,23.89
2018-07-12T19:51:29.157Z,23.74
2018-07-12T19:53:57.930Z,23.66
2018-07-12T19:56:26.753Z,23.54
2018-07-12T19:58:55.652Z,23.43
2018-07-12T20:01:24.632Z,23.38
2018-07-12T20:03:53.501Z,23.35
2018-07-12T20:06:22.515Z,23.31
2018-07-12T20:08:51.371Z,23.31
2018-07-12T20:11:20.176Z,23.32
2018-07-12T20:13:49.049Z,23.32
2018-07-12T20:16:17.947Z,23.35
2018-07-12T20:18:46.735Z,23.27
2018-07-12T20:21:15.594Z,23.27
2018-07-12T20:23:44.360Z,23.21
2018-07-12T20:26:15.215Z,23.17
2018-07-12T20:28:44.156Z,23.12
2018-07-12T20:31:13.012Z,23.13
2018-07-12T20:33:42.344Z,23.11
2018-07-12T20:36:11.293Z,23.14
2018-07-12T20:38:40.882Z,23.17
2018-07-12T20:41:09.703Z,23.20
2018-07-12T20:43:38.559Z,23.19
2018-07-12T20:46:08.466Z,23.15
2018-07-12T20:48:37.264Z,23.08
2018-07-12T20:51:06.364Z,23.02
2018-07-12T20:53:35.171Z,22.99
2018-07-12T20:56:03.981Z,22.99
2018-07-12T20:58:32.779Z,22.95
2018-07-12T21:01:01.569Z,22.87
2018-07-12T21:03:30.510Z,22.85
2018-07-12T21:05:59.324Z,22.82
2018-07-12T21:08:28.148Z,22.78
2018-07-12T21:10:56.884Z,22.74
2018-07-12T21:13:25.688Z,22.71
2018-07-12T21:15:54.532Z,22.65
2018-07-12T21:18:23.343Z,22.46
2018-07-12T21:20:52.158Z,22.39
2018-07-12T21:23:20.928Z,22.32
2018-07-12T21:25:49.736Z,22.21
2018-07-12T21:28:18.537Z,22.20
2018-07-12T21:30:47.386Z,22.18
2018-07-12T21:33:16.191Z,22.22
2018-07-12T21:35:45.146Z,22.21
2018-07-12T21:38:14.051Z,22.23
2018-07-12T21:40:42.851Z,22.25
2018-07-12T21:43:11.703Z,22.26
2018-07-12T21:45:40.484Z,22.34
2018-07-12T21:48:09.365Z,22.32
2018-07-12T21:50:38.159Z,22.34
2018-07-12T21:53:07.011Z,22.34
2018-07-12T21:55:35.831Z,22.34
2018-07-12T21:58:04.649Z,22.34
2018-07-12T22:00:34.137Z,22.29
2018-07-12T22:03:02.946Z,22.31
2018-07-12T22:05:31.752Z,22.31
2018-07-12T22:08:09.403Z,22.29
2018-07-12T22:10:38.977Z,22.33
2018-07-12T22:13:08.064Z,22.30
2018-07-12T22:15:36.887Z,22.29
2018-07-12T22:18:05.722Z,22.25
2018-07-12T22:20:34.547Z,22.20
2018-07-12T22:23:03.857Z,22.13
2018-07-12T22:25:33.143Z,22.07
2018-07-12T22:28:01.996Z,21.94
2018-07-12T22:30:31.290Z,21.91
2018-07-12T22:33:01.454Z,21.90
2018-07-12T22:35:30.374Z,21.83
2018-07-12T22:38:00.304Z,21.80
2018-07-12T22:40:29.299Z,21.78
2018-07-12T22:42:58.366Z,21.77
2018-07-12T22:45:27.144Z,21.72
2018-07-12T22:47:56.169Z,21.66
2018-07-12T22:50:25.336Z,21.60
2018-07-12T22:52:54.263Z,21.65
2018-07-12T22:55:23.175Z,21.66
2018-07-12T22:57:51.959Z,21.66
2018-07-12T23:00:20.892Z,21.69
2018-07-12T23:02:49.686Z,21.67
2018-07-12T23:05:18.530Z,21.60
2018-07-12T23:07:47.362Z,21.58
2018-07-12T23:10:16.137Z,21.50
2018-07-12T23:12:44.922Z,21.49
2018-07-12T23:15:13.682Z,21.49
2018-07-12T23:17:42.469Z,21.34
2018-07-12T23:20:11.280Z,21.25
2018-07-12T23:22:40.082Z,21.16
2018-07-12T23:25:08.847Z,21.15
2018-07-12T23:27:37.619Z,21.13
2018-07-12T23:30:07.048Z,21.10
2018-07-12T23:32:35.831Z,21.08
2018-07-12T23:35:04.700Z,21.10
2018-07-12T23:37:33.520Z,21.08
2018-07-12T23:40:02.300Z,21.04
2018-07-12T23:42:31.036Z,21.03
2018-07-12T23:44:59.819Z,21.03
2018-07-12T23:47:28.612Z,21.06
2018-07-12T23:49:57.399Z,21.09
2018-07-12T23:52:26.185Z,21.05
2018-07-12T23:54:54.997Z,21.01
2018-07-12T23:57:23.955Z,21.01
2018-07-12T23:59:52.697Z,21.05
